Time;durP1;ratioP1;P1;durP2;ratioP2;P2;SDS_P1;SDS_P2;PMS_P1;PMS_P2;Temp;Humidity;BMP_temperature;BMP_pressure;BME280_temperature;BME280_humidity;BME280_pressure;Samples;Min_cycle;Max_cycle;Signal;HPM_P1;HPM_P2
2022/01/23 00:00:43;;;;;;;4.73;2.97;;;6.70;99.90;;;;;;5109224;28;20456;-82
2022/01/23 00:03:17;;;;;;;5.37;2.60;;;6.70;99.90;;;;;;5113054;28;20469;-82
2022/01/23 00:05:46;;;;;;;3.70;3.10;;;6.70;99.90;;;;;;5105912;28;20461;-81
2022/01/23 00:08:18;;;;;;;4.00;2.73;;;6.70;99.90;;;;;;5105968;28;20540;-84
2022/01/23 00:10:50;;;;;;;7.23;3.70;;;6.60;1.00;;;;;;5107417;28;20441;-81
2022/01/23 00:13:27;;;;;;;3.20;2.53;;;6.60;1.00;;;;;;5108706;28;20516;-81
2022/01/23 00:18:41;;;;;;;6.93;3.60;;;6.60;1.00;;;;;;5112230;28;20460;-83
2022/01/23 00:21:10;;;;;;;6.70;3.43;;;6.70;99.90;;;;;;5112829;28;20471;-80
2022/01/23 00:31:54;;;;;;;6.87;3.17;;;6.70;99.90;;;;;;5105770;28;20453;-81
2022/01/23 00:34:22;;;;;;;4.87;3.73;;;6.70;99.90;;;;;;5106586;28;20443;-81
2022/01/23 00:36:50;;;;;;;3.17;2.50;;;6.60;99.90;;;;;;5112068;28;20477;-80
2022/01/23 00:39:18;;;;;;;5.60;2.77;;;6.60;99.90;;;;;;5110647;28;20468;-81
2022/01/23 00:41:48;;;;;;;4.23;2.73;;;6.60;99.90;;;;;;5095590;28;20435;-80
2022/01/23 00:44:16;;;;;;;5.87;2.80;;;6.60;99.90;;;;;;5111583;28;20473;-83
2022/01/23 00:46:50;;;;;;;4.17;3.10;;;6.60;99.90;;;;;;5108077;28;20476;-82
2022/01/23 00:49:27;;;;;;;6.93;3.30;;;6.60;99.90;;;;;;5102630;28;20468;-84
2022/01/23 00:51:56;;;;;;;4.57;2.30;;;6.60;99.90;;;;;;5117518;27;20459;-82
2022/01/23 00:54:26;;;;;;;4.43;2.87;;;6.60;99.90;;;;;;5110556;28;20508;-82
2022/01/23 00:56:56;;;;;;;4.30;3.20;;;6.60;99.90;;;;;;5113776;28;20944;-81
2022/01/23 00:59:24;;;;;;;6.87;3.30;;;6.70;99.90;;;;;;5112355;28;20449;-81
2022/01/23 01:01:52;;;;;;;4.60;3.00;;;6.60;99.90;;;;;;5109449;28;20464;-82
2022/01/23 01:04:21;;;;;;;3.50;2.83;;;6.60;1.00;;;;;;5109223;28;20487;-82
2022/01/23 01:06:49;;;;;;;5.03;2.77;;;6.70;99.90;;;;;;5113993;28;20469;-82
2022/01/23 01:09:18;;;;;;;8.20;3.00;;;6.60;99.90;;;;;;5103024;28;20481;-82
2022/01/23 01:11:57;;;;;;;4.77;2.60;;;6.60;1.00;;;;;;5110918;28;20469;-82
2022/01/23 01:17:20;;;;;;;4.90;3.10;;;6.60;1.00;;;;;;5105292;27;20476;-81
2022/01/23 01:31:02;;;;;;;5.30;2.90;;;6.60;1.00;;;;;;5105346;28;20455;-81
2022/01/23 01:33:44;;;;;;;5.20;3.03;;;6.70;1.00;;;;;;5106534;28;20448;-82
2022/01/23 01:36:24;;;;;;;4.53;2.83;;;6.60;1.00;;;;;;5113957;28;21308;-82
2022/01/23 01:38:53;;;;;;;8.57;4.27;;;6.60;1.00;;;;;;5095520;28;20941;-82
2022/01/23 01:41:22;;;;;;;7.07;3.43;;;6.60;1.00;;;;;;5112868;28;20512;-81
2022/01/23 01:43:52;;;;;;;6.10;3.30;;;6.60;1.00;;;;;;5109314;28;20453;-84
2022/01/23 01:46:22;;;;;;;5.80;3.70;;;6.60;1.00;;;;;;5101504;28;20492;-82
2022/01/23 01:48:51;;;;;;;3.50;2.53;;;6.60;1.00;;;;;;5103919;28;20450;-82
2022/01/23 01:51:19;;;;;;;5.90;3.30;;;6.60;1.00;;;;;;5093277;28;20451;-82
2022/01/23 01:53:51;;;;;;;5.27;3.47;;;6.60;1.00;;;;;;5109605;28;20495;-81
2022/01/23 01:56:20;;;;;;;4.00;2.90;;;6.60;1.00;;;;;;5101441;28;20484;-82
2022/01/23 02:09:52;;;;;;;4.10;2.93;;;6.50;1.00;;;;;;5103912;28;20456;-83
2022/01/23 02:15:42;;;;;;;4.63;3.20;;;6.60;1.00;;;;;;5088277;28;21041;-82
2022/01/23 02:18:32;;;;;;;5.63;3.33;;;6.60;1.00;;;;;;5103340;28;20446;-82
2022/01/23 02:24:07;;;;;;;3.60;2.67;;;6.60;1.00;;;;;;5112786;28;20460;-82
2022/01/23 02:51:57;;;;;;;4.77;3.20;;;6.60;1.00;;;;;;5102128;28;20472;-83
2022/01/23 02:54:46;;;;;;;5.03;3.50;;;6.60;1.00;;;;;;5101062;28;20448;-82
2022/01/23 02:57:20;;;;;;;6.00;3.50;;;6.60;1.00;;;;;;5105671;28;20465;-83
2022/01/23 02:59:51;;;;;;;8.10;3.90;;;6.60;1.00;;;;;;5104627;28;20464;-80
2022/01/23 03:02:30;;;;;;;6.17;3.70;;;6.50;1.00;;;;;;5098082;28;20457;-81
2022/01/23 03:05:02;;;;;;;4.30;3.20;;;6.60;1.00;;;;;;5109333;28;20460;-82
2022/01/23 03:07:55;;;;;;;7.77;3.53;;;6.60;1.00;;;;;;5102607;28;20481;-81
2022/01/23 03:10:28;;;;;;;6.00;3.63;;;6.60;1.00;;;;;;5103486;28;20448;-82
2022/01/23 03:24:22;;;;;;;5.40;3.28;;;6.60;1.00;;;;;;5077869;28;20517;-81
2022/01/23 03:27:15;;;;;;;6.50;4.20;;;6.70;1.00;;;;;;5101578;28;20224;-80
2022/01/23 03:29:54;;;;;;;6.00;4.10;;;6.60;1.00;;;;;;5113576;28;20453;-83
2022/01/23 03:32:28;;;;;;;5.32;2.90;;;6.60;1.00;;;;;;5112630;28;20440;-80
2022/01/23 03:34:57;;;;;;;8.85;3.75;;;6.70;1.00;;;;;;5110123;28;20192;-80
2022/01/23 03:37:25;;;;;;;4.97;3.63;;;6.70;1.00;;;;;;5103929;28;20246;-80
2022/01/23 03:39:53;;;;;;;7.00;4.10;;;6.60;1.00;;;;;;5111633;28;20483;-81
2022/01/23 03:42:24;;;;;;;7.33;4.27;;;6.60;1.00;;;;;;5111239;28;20491;-81
2022/01/23 03:45:10;;;;;;;7.83;4.07;;;6.60;1.00;;;;;;5107283;28;20599;-83
2022/01/23 03:47:39;;;;;;;4.17;2.60;;;6.60;1.00;;;;;;5110423;28;20474;-82
2022/01/23 03:50:09;;;;;;;6.97;4.50;;;6.60;1.00;;;;;;5113325;28;21140;-82
2022/01/23 03:52:38;;;;;;;8.30;3.30;;;6.60;1.00;;;;;;5113626;28;20502;-81
2022/01/23 03:55:07;;;;;;;9.30;3.70;;;6.80;1.00;;;;;;5111546;28;20465;-83
2022/01/23 03:57:37;;;;;;;9.40;3.90;;;6.60;1.00;;;;;;5107957;28;20975;-82
2022/01/23 04:00:08;;;;;;;7.97;3.50;;;6.60;1.00;;;;;;5107808;28;20461;-80
2022/01/23 04:02:36;;;;;;;6.97;4.93;;;6.60;1.00;;;;;;5111282;28;20453;-81
2022/01/23 04:05:05;;;;;;;9.50;3.93;;;6.60;1.00;;;;;;5108804;27;20964;-82
2022/01/23 04:07:35;;;;;;;5.43;3.03;;;6.60;1.00;;;;;;5112844;28;20943;-79
2022/01/23 04:10:04;;;;;;;7.47;4.43;;;6.60;1.00;;;;;;5100979;28;20526;-82
2022/01/23 04:12:42;;;;;;;9.17;5.27;;;6.60;1.00;;;;;;5117970;27;20536;-81
2022/01/23 04:15:18;;;;;;;8.00;3.73;;;6.60;1.00;;;;;;5109698;28;20441;-81
2022/01/23 04:18:43;;;;;;;7.40;3.80;;;6.60;1.00;;;;;;5103681;28;20876;-82
2022/01/23 04:21:15;;;;;;;6.57;4.10;;;6.90;1.00;;;;;;5109017;28;20968;-84
2022/01/23 04:32:15;;;;;;;7.63;4.47;;;6.60;1.00;;;;;;5111339;28;20453;-82
2022/01/23 04:35:02;;;;;;;7.47;3.10;;;6.60;1.00;;;;;;5109495;28;20217;-81
2022/01/23 04:45:53;;;;;;;7.43;4.37;;;6.60;1.00;;;;;;5109659;28;20276;-82
2022/01/23 04:59:35;;;;;;;6.10;4.10;;;6.60;1.00;;;;;;5109337;27;20468;-81
2022/01/23 05:02:17;;;;;;;8.60;4.17;;;6.60;1.00;;;;;;5104396;28;20199;-81
2022/01/23 05:04:48;;;;;;;7.00;3.70;;;6.60;1.00;;;;;;5096626;28;20455;-81
2022/01/23 05:07:18;;;;;;;11.10;4.93;;;6.60;1.00;;;;;;5102707;28;20571;-81
2022/01/23 05:09:47;;;;;;;8.25;4.75;;;6.70;1.00;;;;;;5107511;28;20455;-82
2022/01/23 05:12:15;;;;;;;5.80;3.70;;;6.60;1.00;;;;;;5098975;28;20202;-81
2022/01/23 05:14:46;;;;;;;7.50;4.72;;;6.60;1.00;;;;;;5101633;28;20850;-80
2022/01/23 05:17:15;;;;;;;7.73;4.20;;;6.60;1.00;;;;;;5104695;28;20211;-85
2022/01/23 05:19:44;;;;;;;6.77;4.30;;;6.60;1.00;;;;;;5104175;28;20453;-83
2022/01/23 05:24:54;;;;;;;7.53;3.80;;;6.60;1.00;;;;;;5108111;28;20965;-82
2022/01/23 05:27:23;;;;;;;6.80;3.70;;;6.60;1.00;;;;;;5109739;28;20488;-81
2022/01/23 05:29:51;;;;;;;5.47;3.70;;;6.90;1.00;;;;;;5104456;28;20448;-81
2022/01/23 05:32:20;;;;;;;7.15;3.90;;;6.60;1.00;;;;;;5105390;28;20490;-83
2022/01/23 05:34:49;;;;;;;8.45;5.55;;;6.60;1.00;;;;;;5105446;28;20305;-82
2022/01/23 05:37:19;;;;;;;8.87;4.93;;;6.60;1.00;;;;;;5109264;28;20281;-84
2022/01/23 05:39:47;;;;;;;8.03;4.70;;;6.70;1.00;;;;;;5103214;28;20453;-84
2022/01/23 05:42:15;;;;;;;8.48;4.75;;;6.60;1.00;;;;;;5103788;28;20474;-82
2022/01/23 05:44:44;;;;;;;7.60;4.47;;;6.60;1.00;;;;;;5106080;28;20202;-82
2022/01/23 05:47:13;;;;;;;7.13;4.60;;;6.60;1.00;;;;;;5107692;28;20480;-80
2022/01/23 05:49:42;;;;;;;7.27;4.83;;;6.60;1.00;;;;;;5106288;28;20944;-81
2022/01/23 05:52:11;;;;;;;8.67;4.60;;;6.60;1.00;;;;;;5108343;28;20460;-81
2022/01/23 05:54:41;;;;;;;7.83;4.63;;;6.60;1.00;;;;;;5110900;28;20437;-81
2022/01/23 05:57:09;;;;;;;7.30;4.00;;;6.70;1.00;;;;;;5106690;28;20476;-81
2022/01/23 05:59:37;;;;;;;10.80;5.67;;;6.70;1.00;;;;;;5109606;28;20453;-81
2022/01/23 06:02:06;;;;;;;6.90;3.87;;;6.60;1.00;;;;;;5100564;28;21015;-82
2022/01/23 06:04:34;;;;;;;9.05;5.10;;;6.70;1.00;;;;;;5110505;28;20429;-82
2022/01/23 06:07:03;;;;;;;12.63;5.30;;;6.70;1.00;;;;;;5109913;28;20325;-82
2022/01/23 06:09:31;;;;;;;8.73;4.60;;;6.60;1.00;;;;;;5099847;28;20445;-82
2022/01/23 06:12:01;;;;;;;8.93;5.40;;;6.60;1.00;;;;;;5098388;28;20457;-81
2022/01/23 06:14:29;;;;;;;9.18;4.40;;;6.70;1.00;;;;;;5105775;28;20838;-81
2022/01/23 06:16:57;;;;;;;11.17;5.33;;;6.60;1.00;;;;;;5121484;28;20210;-82
2022/01/23 06:19:26;;;;;;;7.60;4.30;;;6.70;1.00;;;;;;5109813;28;20449;-82
2022/01/23 06:21:54;;;;;;;10.33;4.80;;;6.60;1.00;;;;;;5111670;28;20452;-81
2022/01/23 06:24:25;;;;;;;7.50;4.68;;;6.60;1.00;;;;;;5109539;28;20455;-82
2022/01/23 06:26:56;;;;;;;7.80;4.53;;;6.60;1.00;;;;;;5110371;28;20930;-82
2022/01/23 06:29:30;;;;;;;8.50;5.20;;;6.70;1.00;;;;;;5104359;28;20199;-81
2022/01/23 06:32:00;;;;;;;9.60;4.50;;;6.70;1.00;;;;;;5108923;28;20461;-81
2022/01/23 06:34:29;;;;;;;6.55;4.68;;;6.70;1.00;;;;;;5106421;28;20452;-84
2022/01/23 06:36:58;;;;;;;6.90;4.50;;;6.70;1.00;;;;;;5107474;28;20579;-83
2022/01/23 06:39:27;;;;;;;9.98;6.10;;;6.70;1.00;;;;;;5107370;28;20443;-82
2022/01/23 06:41:55;;;;;;;10.00;5.80;;;6.80;1.00;;;;;;5098203;28;20230;-81
2022/01/23 06:44:26;;;;;;;10.13;5.93;;;6.80;1.00;;;;;;5107663;28;20457;-81
2022/01/23 06:46:57;;;;;;;7.37;4.63;;;6.70;1.00;;;;;;5108391;27;20248;-81
2022/01/23 06:49:25;;;;;;;10.50;5.47;;;6.70;1.00;;;;;;5113872;28;20461;-81
2022/01/23 06:51:53;;;;;;;7.50;4.10;;;6.70;1.00;;;;;;5114352;28;20487;-82
2022/01/23 06:54:22;;;;;;;9.23;4.87;;;6.70;1.00;;;;;;5113540;28;20971;-81
2022/01/23 06:56:50;;;;;;;9.20;6.47;;;6.70;1.00;;;;;;5111546;28;20873;-80
2022/01/23 06:59:18;;;;;;;10.50;5.70;;;6.70;1.00;;;;;;5113310;28;20290;-81
2022/01/23 07:01:46;;;;;;;9.38;4.45;;;6.70;1.00;;;;;;5109980;28;20528;-80
2022/01/23 07:04:21;;;;;;;7.23;4.70;;;6.60;1.00;;;;;;5107365;28;21009;-78
2022/01/23 07:06:51;;;;;;;8.13;4.35;;;6.70;1.00;;;;;;5107275;28;20489;-78
2022/01/23 07:09:19;;;;;;;7.70;5.03;;;6.80;1.00;;;;;;5112796;28;20209;-82
2022/01/23 07:11:48;;;;;;;9.40;4.80;;;6.80;1.00;;;;;;5111404;27;20195;-82
2022/01/23 07:14:16;;;;;;;7.57;4.67;;;6.80;1.00;;;;;;5111797;27;20460;-83
2022/01/23 07:16:44;;;;;;;9.90;5.33;;;6.70;1.00;;;;;;5107650;28;20469;-82
2022/01/23 07:19:13;;;;;;;8.18;4.55;;;6.80;1.00;;;;;;5121682;27;20461;-83
2022/01/23 07:21:43;;;;;;;9.57;6.20;;;6.80;1.00;;;;;;5103638;28;20275;-80
2022/01/23 07:24:11;;;;;;;7.53;4.63;;;6.70;1.00;;;;;;5107547;28;20461;-84
2022/01/23 07:26:39;;;;;;;9.23;5.20;;;6.70;1.00;;;;;;5109952;28;20492;-84
2022/01/23 07:29:08;;;;;;;9.20;5.10;;;6.70;1.00;;;;;;5111640;28;20467;-84
2022/01/23 07:31:57;;;;;;;10.80;6.10;;;6.70;1.00;;;;;;5113745;28;20445;-84
2022/01/23 07:34:26;;;;;;;9.93;6.13;;;6.70;1.00;;;;;;5102539;28;20286;-84
2022/01/23 07:36:56;;;;;;;11.48;7.35;;;6.70;1.00;;;;;;5107188;28;20505;-84
2022/01/23 07:39:25;;;;;;;9.40;5.93;;;6.60;1.00;;;;;;5106484;28;20200;-83
2022/01/23 07:41:54;;;;;;;11.90;7.93;;;6.60;1.00;;;;;;5102425;28;20446;-84
2022/01/23 07:44:22;;;;;;;12.57;6.43;;;6.70;1.00;;;;;;5111016;28;20460;-83
2022/01/23 07:46:51;;;;;;;13.13;6.57;;;6.80;1.00;;;;;;5104468;28;20512;-85
2022/01/23 07:49:20;;;;;;;10.02;6.15;;;6.80;1.00;;;;;;5107456;27;20203;-83
2022/01/23 07:51:48;;;;;;;9.98;4.53;;;6.70;1.00;;;;;;5111144;28;20682;-84
2022/01/23 07:54:18;;;;;;;7.70;5.40;;;6.70;1.00;;;;;;5111617;28;20203;-85
2022/01/23 07:56:47;;;;;;;8.40;5.90;;;6.70;1.00;;;;;;5103251;28;20563;-84
2022/01/23 07:59:15;;;;;;;8.10;4.87;;;6.80;1.00;;;;;;5122500;27;21122;-84
2022/01/23 08:01:43;;;;;;;9.97;5.83;;;6.70;1.00;;;;;;5105737;28;20461;-84
2022/01/23 08:04:11;;;;;;;11.83;6.23;;;6.80;1.00;;;;;;5107169;27;20579;-79
2022/01/23 08:06:45;;;;;;;9.40;6.00;;;6.80;1.00;;;;;;5106282;28;20830;-84
2022/01/23 08:09:15;;;;;;;9.07;5.93;;;6.70;1.00;;;;;;5105440;27;20433;-84
2022/01/23 08:11:44;;;;;;;9.23;5.68;;;6.80;1.00;;;;;;5107711;28;20459;-84
2022/01/23 08:14:12;;;;;;;8.73;4.78;;;6.80;1.00;;;;;;5104615;28;20241;-85
2022/01/23 08:16:41;;;;;;;7.93;4.90;;;6.80;1.00;;;;;;5112157;28;20219;-84
2022/01/23 08:19:09;;;;;;;11.18;5.60;;;6.80;1.00;;;;;;5097819;28;20529;-84
2022/01/23 08:21:37;;;;;;;9.83;6.43;;;6.80;1.00;;;;;;5112178;28;20234;-84
2022/01/23 08:24:06;;;;;;;10.80;6.47;;;6.80;1.00;;;;;;5107031;28;20450;-84
2022/01/23 08:26:35;;;;;;;14.63;5.90;;;6.80;1.00;;;;;;5105032;28;20476;-83
2022/01/23 08:29:06;;;;;;;7.43;5.37;;;6.80;1.00;;;;;;5109765;28;21049;-84
2022/01/23 08:31:35;;;;;;;11.53;6.60;;;6.80;1.00;;;;;;5109000;28;20550;-85
2022/01/23 08:34:03;;;;;;;12.80;6.47;;;6.80;1.00;;;;;;5105183;28;20444;-85
2022/01/23 08:36:33;;;;;;;12.70;6.43;;;6.80;1.00;;;;;;5109976;28;20472;-85
2022/01/23 08:39:01;;;;;;;8.67;5.77;;;6.80;1.00;;;;;;5107819;28;20979;-86
2022/01/23 08:44:18;;;;;;;8.50;5.40;;;6.80;1.00;;;;;;5105945;28;20540;-84
2022/01/23 08:46:46;;;;;;;12.55;6.50;;;6.80;1.00;;;;;;5109376;27;21039;-84
2022/01/23 08:49:17;;;;;;;14.37;7.00;;;6.80;1.00;;;;;;5104248;28;20290;-83
2022/01/23 08:51:45;;;;;;;14.90;6.43;;;6.80;1.00;;;;;;5108281;28;20906;-83
2022/01/23 08:54:13;;;;;;;11.17;5.73;;;6.80;1.00;;;;;;5108070;28;20453;-84
2022/01/23 08:56:42;;;;;;;12.30;6.43;;;6.80;1.00;;;;;;5116141;27;20579;-82
2022/01/23 08:59:11;;;;;;;11.53;6.50;;;6.80;1.00;;;;;;5120256;27;20462;-83
2022/01/23 09:01:41;;;;;;;12.13;6.07;;;6.90;1.00;;;;;;5114524;27;20455;-84
2022/01/23 09:04:15;;;;;;;11.77;7.33;;;6.90;1.00;;;;;;5107431;27;20498;-83
2022/01/23 09:06:44;;;;;;;10.80;6.80;;;6.90;1.00;;;;;;5106975;27;20560;-83
2022/01/23 09:09:16;;;;;;;16.30;8.85;;;6.90;1.00;;;;;;5108004;28;20441;-80
2022/01/23 09:11:56;;;;;;;9.97;6.73;;;6.90;1.00;;;;;;5101270;28;20663;-83
2022/01/23 09:14:25;;;;;;;12.50;6.53;;;6.90;1.00;;;;;;5110738;27;20468;-83
2022/01/23 09:16:55;;;;;;;10.03;6.70;;;7.00;1.00;;;;;;5104704;27;20481;-83
2022/01/23 09:19:24;;;;;;;9.50;5.70;;;7.20;1.00;;;;;;5110140;28;20531;-84
2022/01/23 09:21:54;;;;;;;10.40;6.27;;;7.00;1.00;;;;;;5110920;28;20967;-83
2022/01/23 09:24:25;;;;;;;10.30;6.63;;;7.10;1.00;;;;;;5116443;27;20464;-83
2022/01/23 09:27:02;;;;;;;12.33;7.40;;;7.40;1.00;;;;;;5106590;27;21301;-84
2022/01/23 09:29:34;;;;;;;11.63;6.50;;;7.10;1.00;;;;;;5111675;27;20476;-85
2022/01/23 09:32:10;;;;;;;15.13;8.88;;;7.20;1.00;;;;;;5107501;28;20447;-85
2022/01/23 09:34:41;;;;;;;10.98;7.30;;;7.20;1.00;;;;;;5106898;28;20215;-82
2022/01/23 09:37:12;;;;;;;12.80;7.17;;;7.20;1.00;;;;;;5112395;27;20230;-83
2022/01/23 09:39:42;;;;;;;9.83;6.57;;;7.10;1.00;;;;;;5102518;28;20481;-83
2022/01/23 09:42:14;;;;;;;12.50;7.87;;;7.10;1.00;;;;;;5110954;28;20449;-82
2022/01/23 09:44:46;;;;;;;11.27;6.80;;;7.20;1.00;;;;;;5102600;28;20452;-83
2022/01/23 09:47:19;;;;;;;11.07;7.23;;;7.20;1.00;;;;;;5112000;27;20479;-84
2022/01/23 09:49:50;;;;;;;9.30;6.00;;;7.20;1.00;;;;;;5102815;28;20472;-84
2022/01/23 09:52:20;;;;;;;12.97;7.33;;;7.20;1.00;;;;;;5116289;27;20449;-83
2022/01/23 09:54:56;;;;;;;12.30;8.30;;;7.20;1.00;;;;;;5114162;28;20458;-83
2022/01/23 09:57:29;;;;;;;15.40;7.87;;;7.20;1.00;;;;;;5107256;28;20480;-83
2022/01/23 09:59:59;;;;;;;11.37;6.47;;;7.30;1.00;;;;;;5103740;28;21061;-82
2022/01/23 10:02:29;;;;;;;9.87;6.30;;;7.40;1.00;;;;;;5104422;28;20960;-82
2022/01/23 10:05:03;;;;;;;9.37;5.77;;;7.30;1.00;;;;;;5115328;28;20455;-83
2022/01/23 10:07:32;;;;;;;9.77;6.70;;;7.40;1.00;;;;;;5107707;28;20471;-83
2022/01/23 10:10:10;;;;;;;13.63;8.40;;;7.40;1.00;;;;;;5104942;28;20477;-83
2022/01/23 10:12:41;;;;;;;8.50;6.20;;;7.40;1.00;;;;;;5113891;28;20202;-82
2022/01/23 10:15:11;;;;;;;9.90;6.20;;;7.40;1.00;;;;;;5103909;28;20502;-83
2022/01/23 10:17:41;;;;;;;9.10;5.90;;;7.40;1.00;;;;;;5114386;27;20448;-84
2022/01/23 10:20:11;;;;;;;8.60;4.67;;;7.50;1.00;;;;;;5114667;27;20446;-84
2022/01/23 10:22:43;;;;;;;6.80;4.70;;;7.50;1.00;;;;;;5112518;28;20462;-84
2022/01/23 10:25:13;;;;;;;8.80;4.90;;;7.80;1.00;;;;;;5111054;27;20936;-83
2022/01/23 10:28:03;;;;;;;7.50;4.57;;;7.60;1.00;;;;;;5109474;28;20445;-85
2022/01/23 10:30:34;;;;;;;8.93;5.20;;;7.60;1.00;;;;;;5097656;27;20491;-81
2022/01/23 10:33:10;;;;;;;9.73;6.07;;;7.60;1.00;;;;;;5110382;27;20453;-84
2022/01/23 10:35:57;;;;;;;8.50;5.10;;;7.60;1.00;;;;;;5109476;28;20480;-83
2022/01/23 10:38:28;;;;;;;10.00;5.33;;;7.60;1.00;;;;;;5107576;28;20951;-82
2022/01/23 10:41:07;;;;;;;6.93;4.90;;;7.60;99.90;;;;;;5109274;27;20471;-78
2022/01/23 10:46:56;;;;;;;6.47;4.20;;;7.60;99.90;;;;;;5107852;27;21049;-83
2022/01/23 10:49:49;;;;;;;7.00;4.80;;;7.70;99.90;;;;;;5103286;28;20444;-83
2022/01/23 10:52:28;;;;;;;7.13;4.33;;;7.70;99.90;;;;;;5109992;27;20196;-83
2022/01/23 10:54:56;;;;;;;6.87;4.23;;;7.70;99.90;;;;;;5113065;27;20551;-83
2022/01/23 10:57:25;;;;;;;5.97;3.93;;;7.80;99.90;;;;;;5110099;27;20465;-83
2022/01/23 10:59:54;;;;;;;6.27;3.43;;;7.80;99.90;;;;;;5110437;28;20457;-84
2022/01/23 11:02:26;;;;;;;6.30;3.83;;;7.80;99.90;;;;;;5108919;27;20958;-82
2022/01/23 11:05:01;;;;;;;6.27;3.27;;;7.80;99.90;;;;;;5112157;27;20456;-84
2022/01/23 11:07:30;;;;;;;5.37;3.20;;;7.70;99.90;;;;;;5119689;27;20485;-81
2022/01/23 11:10:02;;;;;;;6.40;3.80;;;7.70;99.90;;;;;;5106057;27;20560;-82
2022/01/23 11:18:06;;;;;;;7.13;4.47;;;7.70;99.90;;;;;;5100070;28;20852;-83
2022/01/23 11:20:37;;;;;;;7.60;3.73;;;7.60;99.90;;;;;;5103383;28;20278;-81
2022/01/23 11:23:15;;;;;;;7.00;3.63;;;7.60;99.90;;;;;;5107691;28;20458;-83
2022/01/23 11:25:45;;;;;;;6.05;4.05;;;7.50;99.90;;;;;;5105716;27;20398;-82
2022/01/23 11:28:14;;;;;;;6.40;4.27;;;7.60;99.90;;;;;;5110435;28;20452;-82
2022/01/23 11:30:45;;;;;;;5.03;3.30;;;7.60;99.90;;;;;;5111687;27;21021;-83
2022/01/23 11:33:16;;;;;;;3.60;3.30;;;7.70;99.90;;;;;;5107484;27;20456;-83
2022/01/23 11:35:47;;;;;;;6.40;3.90;;;7.60;99.90;;;;;;5107211;27;20517;-83
2022/01/23 11:38:18;;;;;;;4.93;2.93;;;7.60;99.90;;;;;;5103779;27;20205;-83
2022/01/23 11:55:01;;;;;;;7.47;4.43;;;7.70;99.90;;;;;;5104177;28;20449;-83
2022/01/23 11:57:45;;;;;;;7.83;4.00;;;7.70;99.90;;;;;;5107469;27;20454;-82
2022/01/23 12:00:20;;;;;;;6.17;3.30;;;7.70;99.90;;;;;;5104661;28;20446;-83
2022/01/23 12:03:08;;;;;;;6.20;3.40;;;7.70;99.90;;;;;;5103854;27;20480;-81
2022/01/23 12:05:39;;;;;;;8.77;4.15;;;7.70;99.90;;;;;;5097930;27;20862;-83
2022/01/23 12:17:39;;;;;;;4.85;3.30;;;7.80;99.90;;;;;;5101961;28;20504;-82
2022/01/23 12:20:08;;;;;;;3.93;3.43;;;7.80;99.90;;;;;;5103684;28;20786;-82
2022/01/23 12:22:55;;;;;;;6.30;3.63;;;7.80;99.90;;;;;;5102689;28;20445;-82
2022/01/23 12:25:30;;;;;;;4.43;3.50;;;7.90;99.90;;;;;;5104612;28;20449;-82
2022/01/23 12:28:25;;;;;;;5.97;3.97;;;7.90;99.90;;;;;;5115313;27;20549;-82
2022/01/23 12:30:55;;;;;;;6.50;3.97;;;7.80;99.90;;;;;;5114075;27;20478;-82
2022/01/23 12:33:46;;;;;;;5.63;3.50;;;7.90;99.90;;;;;;5109019;27;20541;-82
2022/01/23 12:36:27;;;;;;;4.20;2.80;;;8.00;99.90;;;;;;5104404;28;20869;-82
2022/01/23 12:38:59;;;;;;;5.40;2.90;;;8.00;99.90;;;;;;5109380;27;20484;-83
2022/01/23 12:41:33;;;;;;;5.80;4.30;;;8.00;99.90;;;;;;5101756;28;20536;-82
2022/01/23 12:44:05;;;;;;;5.33;3.33;;;8.00;99.90;;;;;;5104144;28;21079;-81
2022/01/23 12:46:39;;;;;;;7.03;2.87;;;8.00;99.90;;;;;;5103362;28;20562;-82
2022/01/23 12:49:25;;;;;;;3.87;3.27;;;8.00;99.90;;;;;;5110665;27;20461;-82
2022/01/23 12:52:12;;;;;;;5.00;2.60;;;8.00;99.90;;;;;;5106489;27;20446;-81
2022/01/23 12:54:55;;;;;;;4.23;3.10;;;8.10;99.90;;;;;;5117626;27;20495;-84
2022/01/23 12:57:32;;;;;;;5.17;2.80;;;8.00;99.90;;;;;;5109162;27;20518;-82
2022/01/23 13:00:03;;;;;;;5.70;2.90;;;8.00;99.90;;;;;;5110218;27;20879;-81
2022/01/23 13:02:40;;;;;;;6.17;3.00;;;8.00;99.90;;;;;;5107505;28;20457;-82
2022/01/23 13:05:10;;;;;;;3.30;2.90;;;8.00;99.90;;;;;;5107227;28;20462;-81
2022/01/23 13:07:47;;;;;;;4.83;2.53;;;8.10;99.90;;;;;;5105967;27;20477;-82
2022/01/23 13:10:29;;;;;;;4.72;3.80;;;8.00;99.90;;;;;;5112477;27;20431;-82
2022/01/23 13:13:15;;;;;;;5.73;3.80;;;8.10;99.90;;;;;;5102040;27;20461;-83
2022/01/23 13:16:00;;;;;;;2.87;2.47;;;8.00;99.90;;;;;;5104393;28;20461;-84
2022/01/23 13:18:44;;;;;;;4.60;2.57;;;8.10;99.90;;;;;;5107264;27;20447;-82
2022/01/23 13:27:16;;;;;;;2.50;1.70;;;8.00;99.90;;;;;;5111037;27;20817;-81
2022/01/23 13:32:33;;;;;;;4.87;2.37;;;8.00;99.90;;;;;;5105136;27;20442;-81
2022/01/23 13:35:07;;;;;;;1.87;1.30;;;8.10;99.90;;;;;;5113528;28;20462;-84
2022/01/23 13:37:37;;;;;;;2.30;1.97;;;8.00;99.90;;;;;;5106286;27;20466;-83
2022/01/23 13:40:09;;;;;;;1.77;1.50;;;8.10;99.90;;;;;;5110451;28;20445;-84
2022/01/23 13:42:47;;;;;;;2.70;1.50;;;8.10;99.90;;;;;;5111997;28;20461;-82
2022/01/23 13:51:27;;;;;;;4.57;2.73;;;8.00;99.90;;;;;;5096092;28;20471;-82
2022/01/23 13:59:37;;;;;;;2.83;2.17;;;8.00;99.90;;;;;;5106664;27;20882;-84
2022/01/23 14:02:16;;;;;;;3.00;1.90;;;8.00;99.90;;;;;;5119046;27;20499;-84
2022/01/23 14:04:48;;;;;;;2.83;1.93;;;8.00;99.90;;;;;;5117006;28;20486;-82
2022/01/23 14:07:22;;;;;;;5.10;2.63;;;8.00;99.90;;;;;;5125474;28;20489;-83
2022/01/23 14:09:54;;;;;;;3.10;1.90;;;8.10;99.90;;;;;;5109913;28;20977;-85
2022/01/23 14:12:24;;;;;;;2.30;1.80;;;7.90;99.90;;;;;;5114773;28;20754;-82
2022/01/23 14:15:14;;;;;;;3.20;1.70;;;7.90;99.90;;;;;;5109592;28;20446;-83
2022/01/23 14:17:55;;;;;;;2.73;2.03;;;8.20;99.90;;;;;;5116389;28;20476;-83
2022/01/23 14:20:24;;;;;;;3.83;2.70;;;7.90;99.90;;;;;;5104098;28;20451;-83
2022/01/23 14:22:53;;;;;;;3.30;1.80;;;7.80;99.90;;;;;;5119340;28;20464;-83
2022/01/23 14:25:23;;;;;;;3.43;2.00;;;7.80;99.90;;;;;;5106279;28;20490;-84
2022/01/23 14:28:03;;;;;;;2.97;2.00;;;7.80;99.90;;;;;;5109817;28;20459;-84
2022/01/23 14:30:32;;;;;;;3.33;2.70;;;7.80;99.90;;;;;;5108984;28;20466;-82
2022/01/23 14:33:12;;;;;;;3.70;2.23;;;7.90;99.90;;;;;;5112492;28;20453;-85
2022/01/23 14:35:41;;;;;;;3.87;2.03;;;7.90;99.90;;;;;;5106429;28;20475;-83
2022/01/23 14:38:11;;;;;;;4.30;3.30;;;7.90;99.90;;;;;;5104779;28;20439;-83
2022/01/23 14:40:41;;;;;;;3.50;1.97;;;7.90;99.90;;;;;;5106036;28;20191;-84
2022/01/23 14:43:12;;;;;;;6.70;1.90;;;7.90;99.90;;;;;;5104888;28;20458;-80
2022/01/23 14:45:43;;;;;;;3.83;2.13;;;7.90;99.90;;;;;;5097797;28;20485;-79
2022/01/23 14:48:14;;;;;;;2.80;2.23;;;7.90;99.90;;;;;;5102847;28;20436;-81
2022/01/23 14:50:47;;;;;;;2.60;2.13;;;7.90;99.90;;;;;;5110552;28;20471;-84
2022/01/23 14:53:17;;;;;;;2.07;1.80;;;7.90;99.90;;;;;;5105136;28;20439;-83
2022/01/23 14:55:47;;;;;;;3.03;1.93;;;7.90;99.90;;;;;;5106946;28;20824;-84
2022/01/23 14:58:19;;;;;;;2.63;1.70;;;7.90;99.90;;;;;;5102250;28;21007;-84
2022/01/23 15:00:48;;;;;;;2.73;1.70;;;7.90;99.90;;;;;;5096349;28;20507;-83
2022/01/23 15:03:19;;;;;;;5.53;2.00;;;7.90;99.90;;;;;;5101620;28;21028;-85
2022/01/23 15:05:47;;;;;;;4.93;2.10;;;7.90;99.90;;;;;;5114174;28;20952;-84
2022/01/23 15:08:20;;;;;;;2.57;2.07;;;7.90;99.90;;;;;;5111312;28;20457;-85
2022/01/23 15:10:50;;;;;;;6.30;2.07;;;7.90;99.90;;;;;;5119157;27;20460;-83
2022/01/23 15:13:19;;;;;;;3.20;2.10;;;8.00;99.90;;;;;;5105307;27;20443;-84
2022/01/23 15:15:48;;;;;;;2.10;1.60;;;7.90;99.90;;;;;;5116636;27;20470;-84
2022/01/23 15:18:18;;;;;;;2.30;1.70;;;7.90;99.90;;;;;;5111566;28;20533;-83
2022/01/23 15:20:47;;;;;;;3.60;1.93;;;7.90;99.90;;;;;;5099134;27;20462;-82
2022/01/23 15:23:17;;;;;;;1.90;1.37;;;7.90;99.90;;;;;;5103585;27;20456;-84
2022/01/23 15:25:46;;;;;;;2.27;2.00;;;7.90;99.90;;;;;;5112510;28;20470;-85
2022/01/23 15:28:15;;;;;;;4.33;1.90;;;7.90;99.90;;;;;;5115703;27;20454;-83
2022/01/23 15:30:44;;;;;;;2.50;1.50;;;7.80;99.90;;;;;;5114224;28;20458;-83
2022/01/23 15:33:13;;;;;;;2.47;1.80;;;7.80;99.90;;;;;;5117495;27;20649;-82
2022/01/23 15:35:47;;;;;;;3.47;1.57;;;7.80;99.90;;;;;;5119088;27;20532;-82
2022/01/23 15:38:16;;;;;;;2.63;1.80;;;7.80;99.90;;;;;;5114033;28;20459;-84
2022/01/23 15:40:45;;;;;;;2.47;1.87;;;7.80;99.90;;;;;;5118901;27;20961;-82
2022/01/23 15:43:13;;;;;;;6.10;2.57;;;7.80;99.90;;;;;;5111318;28;20807;-86
2022/01/23 15:45:45;;;;;;;2.20;1.40;;;7.90;99.90;;;;;;5111344;28;20482;-83
2022/01/23 15:48:14;;;;;;;1.97;1.40;;;7.80;99.90;;;;;;5112285;28;20450;-82
2022/01/23 15:50:43;;;;;;;2.20;1.77;;;7.80;99.90;;;;;;5112252;28;20446;-83
2022/01/23 15:53:12;;;;;;;4.13;2.30;;;7.80;99.90;;;;;;5111166;28;20443;-81
2022/01/23 15:55:40;;;;;;;1.73;1.60;;;7.70;99.90;;;;;;5117490;27;20222;-85
2022/01/23 15:58:08;;;;;;;2.77;1.60;;;7.80;99.90;;;;;;5117143;27;20471;-82
2022/01/23 16:00:37;;;;;;;3.37;1.80;;;7.80;99.90;;;;;;5109408;28;20480;-81
2022/01/23 16:03:05;;;;;;;2.23;1.73;;;7.80;99.90;;;;;;5111868;28;20453;-81
2022/01/23 16:05:34;;;;;;;1.97;1.57;;;7.70;99.90;;;;;;5112483;28;20473;-79
2022/01/23 16:08:04;;;;;;;2.67;1.97;;;7.70;99.90;;;;;;5107214;27;20460;-81
2022/01/23 16:10:33;;;;;;;1.60;1.33;;;7.70;99.90;;;;;;5112640;28;20461;-82
2022/01/23 16:13:01;;;;;;;2.63;1.83;;;7.80;99.90;;;;;;5108755;27;20561;-84